Time;durP1;ratioP1;P1;durP2;ratioP2;P2;SDS_P1;SDS_P2;PMS_P1;PMS_P2;Temp;Humidity;BMP_temperature;BMP_pressure;BME280_temperature;BME280_humidity;BME280_pressure;Samples;Min_cycle;Max_cycle;Signal;HPM_P1;HPM_P2
2022/03/10 00:00:05;;;;;;;56.80;43.08;;;;;;;;;;342503;28;1324;-81
2022/03/10 00:00:15;;;;;;;58.78;44.08;;;;;;;;;;343498;28;1357;-82
2022/03/10 00:00:26;;;;;;;57.63;44.10;;;;;;;;;;342513;28;1295;-85
2022/03/10 00:00:36;;;;;;;56.50;42.70;;;;;;;;;;343943;28;1229;-81
2022/03/10 00:00:46;;;;;;;57.17;42.97;;;;;;;;;;342485;28;1184;-82
2022/03/10 00:00:57;;;;;;;58.83;43.27;;;;;;;;;;342788;28;882;-85
2022/03/10 00:01:07;;;;;;;59.13;43.83;;;;;;;;;;342747;28;875;-85
2022/03/10 00:01:17;;;;;;;58.80;42.92;;;;;;;;;;340769;29;1188;-81
2022/03/10 00:01:28;;;;;;;58.87;42.67;;;;;;;;;;341227;29;1312;-85
2022/03/10 00:01:38;;;;;;;57.35;42.22;;;;;;;;;;341404;29;812;-82
2022/03/10 00:01:48;;;;;;;56.87;42.53;;;;;;;;;;341694;28;1245;-82
2022/03/10 00:01:59;;;;;;;60.00;43.57;;;;;;;;;;341235;29;1399;-83
2022/03/10 00:02:09;;;;;;;63.75;43.63;;;;;;;;;;340889;29;1988;-82
2022/03/10 00:02:19;;;;;;;64.87;44.13;;;;;;;;;;341511;28;895;-82
2022/03/10 00:02:30;;;;;;;59.92;43.03;;;;;;;;;;341793;28;1300;-83
2022/03/10 00:02:44;;;;;;;59.60;42.87;;;;;;;;;;342754;28;847;-85
2022/03/10 00:02:54;;;;;;;60.10;42.80;;;;;;;;;;342545;28;1418;-84
2022/03/10 00:03:04;;;;;;;59.93;43.03;;;;;;;;;;342691;28;898;-81
2022/03/10 00:03:17;;;;;;;61.40;43.15;;;;;;;;;;342453;28;1304;-85
2022/03/10 00:03:28;;;;;;;59.63;42.75;;;;;;;;;;341249;29;1203;-82
2022/03/10 00:03:38;;;;;;;60.27;43.07;;;;;;;;;;341455;29;891;-82
2022/03/10 00:03:48;;;;;;;57.75;43.70;;;;;;;;;;339866;29;1309;-82
2022/03/10 00:03:59;;;;;;;58.73;44.27;;;;;;;;;;341089;28;1190;-82
2022/03/10 00:04:09;;;;;;;57.83;44.10;;;;;;;;;;341414;29;852;-86
2022/03/10 00:04:19;;;;;;;58.50;43.78;;;;;;;;;;339462;29;1262;-81
2022/03/10 00:04:31;;;;;;;58.20;42.50;;;;;;;;;;341191;29;1159;-84
2022/03/10 00:04:41;;;;;;;58.63;42.05;;;;;;;;;;341326;29;1345;-83
2022/03/10 00:04:52;;;;;;;59.17;42.17;;;;;;;;;;342445;28;1224;-85
2022/03/10 00:05:03;;;;;;;59.95;42.85;;;;;;;;;;342261;28;1183;-84
2022/03/10 00:05:15;;;;;;;59.58;42.55;;;;;;;;;;341391;29;1218;-83
2022/03/10 00:05:25;;;;;;;59.67;41.58;;;;;;;;;;341102;28;855;-85
2022/03/10 00:05:36;;;;;;;57.00;40.90;;;;;;;;;;341418;29;792;-82
2022/03/10 00:05:46;;;;;;;55.33;40.60;;;;;;;;;;342583;28;1302;-82
2022/03/10 00:05:56;;;;;;;53.40;41.30;;;;;;;;;;342835;28;843;-84
2022/03/10 00:06:07;;;;;;;55.63;41.00;;;;;;;;;;342627;28;1224;-84
2022/03/10 00:06:17;;;;;;;56.22;41.03;;;;;;;;;;342719;28;831;-82
2022/03/10 00:06:27;;;;;;;57.07;40.63;;;;;;;;;;342499;28;1133;-82
2022/03/10 00:06:38;;;;;;;57.20;42.15;;;;;;;;;;342795;28;902;-82
2022/03/10 00:06:48;;;;;;;56.40;41.80;;;;;;;;;;342725;28;812;-81
2022/03/10 00:06:59;;;;;;;54.33;41.10;;;;;;;;;;343468;28;1115;-85
2022/03/10 00:07:10;;;;;;;53.85;40.17;;;;;;;;;;344078;28;855;-84
2022/03/10 00:07:20;;;;;;;54.43;40.17;;;;;;;;;;343483;28;1340;-82
2022/03/10 00:07:30;;;;;;;54.57;40.27;;;;;;;;;;342469;28;1186;-82
2022/03/10 00:07:41;;;;;;;56.10;39.92;;;;;;;;;;342359;28;1271;-82
2022/03/10 00:07:51;;;;;;;56.80;40.33;;;;;;;;;;342620;28;1240;-85
2022/03/10 00:08:01;;;;;;;55.42;39.83;;;;;;;;;;342607;28;1145;-82
2022/03/10 00:08:12;;;;;;;55.33;39.73;;;;;;;;;;342593;28;1173;-84
2022/03/10 00:08:22;;;;;;;54.10;39.87;;;;;;;;;;342499;28;820;-82
2022/03/10 00:08:32;;;;;;;54.85;39.88;;;;;;;;;;341181;29;1239;-85
2022/03/10 00:08:43;;;;;;;51.93;39.93;;;;;;;;;;342651;28;1275;-82
2022/03/10 00:08:53;;;;;;;53.03;39.47;;;;;;;;;;342606;28;1148;-85
2022/03/10 00:09:03;;;;;;;53.55;40.28;;;;;;;;;;342456;28;1197;-83
2022/03/10 00:09:14;;;;;;;54.17;40.90;;;;;;;;;;342837;28;832;-85
2022/03/10 00:09:24;;;;;;;54.67;40.90;;;;;;;;;;342331;28;827;-82
2022/03/10 00:09:34;;;;;;;53.97;40.33;;;;;;;;;;343551;28;1198;-85
2022/03/10 00:09:45;;;;;;;54.47;39.87;;;;;;;;;;344021;28;1244;-82
2022/03/10 00:09:55;;;;;;;53.90;40.83;;;;;;;;;;344027;28;979;-81
2022/03/10 00:10:06;;;;;;;56.05;41.33;;;;;;;;;;343713;28;1458;-85
2022/03/10 00:10:16;;;;;;;58.20;41.70;;;;;;;;;;343653;28;1584;-82
2022/03/10 00:10:27;;;;;;;58.17;40.65;;;;;;;;;;342475;28;1338;-81
2022/03/10 00:10:37;;;;;;;60.13;41.30;;;;;;;;;;343930;28;1409;-82
2022/03/10 00:10:47;;;;;;;58.90;40.73;;;;;;;;;;343662;28;1185;-81
2022/03/10 00:10:58;;;;;;;60.83;40.67;;;;;;;;;;343692;28;1312;-82
2022/03/10 00:11:08;;;;;;;57.53;39.83;;;;;;;;;;343782;28;1265;-82
2022/03/10 00:11:18;;;;;;;58.25;40.45;;;;;;;;;;343931;28;1181;-84
2022/03/10 00:11:29;;;;;;;55.60;40.50;;;;;;;;;;341164;28;1279;-86
2022/03/10 00:11:40;;;;;;;57.70;40.83;;;;;;;;;;341348;29;1191;-82
2022/03/10 00:11:50;;;;;;;58.03;40.45;;;;;;;;;;341238;29;1340;-81
2022/03/10 00:12:01;;;;;;;57.38;40.67;;;;;;;;;;341408;29;855;-82
2022/03/10 00:12:11;;;;;;;57.28;40.45;;;;;;;;;;341457;29;959;-85
2022/03/10 00:12:22;;;;;;;58.27;41.27;;;;;;;;;;342107;28;1297;-81
2022/03/10 00:12:32;;;;;;;59.90;41.00;;;;;;;;;;342456;28;1273;-82
2022/03/10 00:12:52;;;;;;;57.67;40.87;;;;;;;;;;342859;28;811;-85
2022/03/10 00:13:03;;;;;;;55.78;41.00;;;;;;;;;;342675;28;923;-83
2022/03/10 00:13:13;;;;;;;56.55;40.85;;;;;;;;;;342707;28;1185;-84
2022/03/10 00:13:27;;;;;;;56.57;40.70;;;;;;;;;;342500;28;847;-82
2022/03/10 00:13:37;;;;;;;54.53;39.65;;;;;;;;;;342763;28;955;-82
2022/03/10 00:13:48;;;;;;;53.40;40.17;;;;;;;;;;342701;28;816;-81
2022/03/10 00:13:58;;;;;;;55.08;40.92;;;;;;;;;;341259;29;1197;-81
2022/03/10 00:14:10;;;;;;;56.63;41.87;;;;;;;;;;340078;29;1173;-81
2022/03/10 00:14:21;;;;;;;57.90;41.83;;;;;;;;;;340957;29;1284;-84
2022/03/10 00:14:31;;;;;;;56.85;41.05;;;;;;;;;;342290;28;883;-81
2022/03/10 00:14:42;;;;;;;56.03;40.63;;;;;;;;;;342811;28;946;-84
2022/03/10 00:14:52;;;;;;;54.00;40.33;;;;;;;;;;342553;28;1216;-81
2022/03/10 00:15:04;;;;;;;55.57;40.73;;;;;;;;;;342510;28;1181;-82
2022/03/10 00:15:15;;;;;;;55.53;40.53;;;;;;;;;;342777;28;863;-81
2022/03/10 00:15:26;;;;;;;57.45;41.10;;;;;;;;;;343559;28;1358;-84
2022/03/10 00:15:37;;;;;;;58.87;41.87;;;;;;;;;;342681;28;1242;-82
2022/03/10 00:15:47;;;;;;;58.35;42.20;;;;;;;;;;342528;28;1259;-81
2022/03/10 00:15:59;;;;;;;56.42;41.50;;;;;;;;;;343592;28;1205;-81
2022/03/10 00:16:09;;;;;;;54.47;39.67;;;;;;;;;;342718;28;1284;-81
2022/03/10 00:16:19;;;;;;;56.70;40.53;;;;;;;;;;342696;28;921;-81
2022/03/10 00:16:30;;;;;;;57.60;40.77;;;;;;;;;;341145;28;1173;-81
2022/03/10 00:16:40;;;;;;;59.00;40.97;;;;;;;;;;339872;29;1177;-85
2022/03/10 00:16:51;;;;;;;57.80;40.30;;;;;;;;;;339617;29;1407;-81
2022/03/10 00:17:01;;;;;;;56.67;40.80;;;;;;;;;;341120;29;1166;-82
2022/03/10 00:17:11;;;;;;;55.58;40.83;;;;;;;;;;342693;28;1296;-82
2022/03/10 00:17:22;;;;;;;54.63;41.03;;;;;;;;;;342727;28;800;-82
2022/03/10 00:17:32;;;;;;;53.38;39.90;;;;;;;;;;342553;28;898;-82
2022/03/10 00:17:42;;;;;;;53.47;39.67;;;;;;;;;;342452;28;1272;-82
2022/03/10 00:17:53;;;;;;;55.30;40.07;;;;;;;;;;342578;28;1379;-81
2022/03/10 00:18:04;;;;;;;54.22;40.38;;;;;;;;;;341261;28;1315;-81
2022/03/10 00:18:14;;;;;;;53.90;40.53;;;;;;;;;;342585;28;1232;-81
2022/03/10 00:18:25;;;;;;;53.53;39.60;;;;;;;;;;342127;28;1183;-81
2022/03/10 00:18:35;;;;;;;55.20;39.80;;;;;;;;;;343750;28;1197;-81
2022/03/10 00:18:46;;;;;;;54.97;39.97;;;;;;;;;;344049;28;940;-81
2022/03/10 00:18:56;;;;;;;53.43;40.07;;;;;;;;;;343724;28;1427;-81
2022/03/10 00:19:07;;;;;;;55.92;40.10;;;;;;;;;;343941;28;1249;-85
2022/03/10 00:19:17;;;;;;;56.03;40.20;;;;;;;;;;343900;28;1205;-82
2022/03/10 00:19:28;;;;;;;57.03;39.88;;;;;;;;;;342430;28;1292;-81
2022/03/10 00:19:38;;;;;;;54.40;39.57;;;;;;;;;;341303;29;1264;-84
2022/03/10 00:19:48;;;;;;;56.10;40.03;;;;;;;;;;342386;28;1165;-85
2022/03/10 00:19:59;;;;;;;58.78;40.80;;;;;;;;;;342575;28;1196;-85
2022/03/10 00:20:09;;;;;;;59.37;41.80;;;;;;;;;;342781;28;875;-82
2022/03/10 00:20:20;;;;;;;57.25;41.78;;;;;;;;;;342729;28;939;-81
2022/03/10 00:20:31;;;;;;;54.95;41.25;;;;;;;;;;342583;28;894;-81
2022/03/10 00:20:42;;;;;;;55.63;40.95;;;;;;;;;;342598;28;1279;-81
2022/03/10 00:20:52;;;;;;;56.33;40.97;;;;;;;;;;342163;28;1433;-81
2022/03/10 00:21:02;;;;;;;56.20;41.40;;;;;;;;;;342597;28;1242;-81
2022/03/10 00:21:13;;;;;;;56.07;42.13;;;;;;;;;;342719;28;1262;-82
2022/03/10 00:21:23;;;;;;;54.17;41.63;;;;;;;;;;342622;28;1342;-84
2022/03/10 00:21:34;;;;;;;53.70;41.17;;;;;;;;;;343517;28;1237;-81
2022/03/10 00:21:45;;;;;;;53.47;39.55;;;;;;;;;;344168;28;788;-81
2022/03/10 00:21:55;;;;;;;56.50;40.05;;;;;;;;;;343727;28;1379;-81
2022/03/10 00:22:06;;;;;;;56.70;40.17;;;;;;;;;;343861;28;1997;-81
2022/03/10 00:22:17;;;;;;;57.05;40.10;;;;;;;;;;343953;28;1298;-82
2022/03/10 00:22:27;;;;;;;54.67;39.15;;;;;;;;;;343639;28;1295;-81
2022/03/10 00:22:47;;;;;;;53.97;38.93;;;;;;;;;;345067;28;1272;-83
2022/03/10 00:22:58;;;;;;;55.13;41.03;;;;;;;;;;343670;28;1206;-82
2022/03/10 00:23:08;;;;;;;56.07;41.33;;;;;;;;;;344328;28;1411;-81
2022/03/10 00:23:18;;;;;;;55.50;40.97;;;;;;;;;;345533;28;1295;-82
2022/03/10 00:23:29;;;;;;;55.60;40.65;;;;;;;;;;345136;28;1208;-81
2022/03/10 00:23:39;;;;;;;55.77;40.90;;;;;;;;;;344035;28;1263;-85
2022/03/10 00:23:49;;;;;;;56.90;41.00;;;;;;;;;;343710;28;1327;-81
2022/03/10 00:24:00;;;;;;;56.63;41.30;;;;;;;;;;343313;28;1470;-81
2022/03/10 00:24:10;;;;;;;54.13;40.27;;;;;;;;;;343886;28;1125;-82
2022/03/10 00:24:21;;;;;;;52.80;40.53;;;;;;;;;;343587;28;1307;-84
2022/03/10 00:24:31;;;;;;;54.47;40.37;;;;;;;;;;343787;28;1376;-84
2022/03/10 00:24:41;;;;;;;56.70;40.72;;;;;;;;;;343723;28;1269;-85
2022/03/10 00:24:52;;;;;;;56.53;39.93;;;;;;;;;;342547;28;1386;-82
2022/03/10 00:25:02;;;;;;;56.45;40.42;;;;;;;;;;341065;29;1181;-81
2022/03/10 00:25:13;;;;;;;57.63;40.37;;;;;;;;;;340689;28;1273;-81
2022/03/10 00:25:24;;;;;;;59.35;40.63;;;;;;;;;;341226;28;1265;-82
2022/03/10 00:25:34;;;;;;;57.95;40.38;;;;;;;;;;341198;29;828;-82
2022/03/10 00:25:44;;;;;;;54.83;40.30;;;;;;;;;;341462;29;860;-85
2022/03/10 00:25:55;;;;;;;53.83;40.33;;;;;;;;;;342521;28;1196;-82
2022/03/10 00:26:05;;;;;;;54.45;40.40;;;;;;;;;;342772;28;859;-85
2022/03/10 00:26:15;;;;;;;56.40;40.60;;;;;;;;;;344009;28;879;-82
2022/03/10 00:26:26;;;;;;;58.28;40.60;;;;;;;;;;344007;28;1157;-84
2022/03/10 00:26:39;;;;;;;61.40;40.37;;;;;;;;;;343884;28;832;-81
2022/03/10 00:26:50;;;;;;;59.05;40.10;;;;;;;;;;342582;28;1267;-82
2022/03/10 00:27:00;;;;;;;57.53;39.90;;;;;;;;;;343862;28;1061;-85
2022/03/10 00:27:10;;;;;;;54.17;40.00;;;;;;;;;;343772;28;1296;-84
2022/03/10 00:27:21;;;;;;;54.35;39.63;;;;;;;;;;344043;28;796;-81
2022/03/10 00:27:31;;;;;;;52.50;39.73;;;;;;;;;;343666;28;1248;-84
2022/03/10 00:27:41;;;;;;;52.60;40.07;;;;;;;;;;342480;28;1375;-81
2022/03/10 00:27:52;;;;;;;53.58;40.75;;;;;;;;;;342650;28;895;-81
2022/03/10 00:28:02;;;;;;;54.87;40.47;;;;;;;;;;342835;28;797;-84
2022/03/10 00:28:13;;;;;;;55.42;40.20;;;;;;;;;;342720;28;824;-81
2022/03/10 00:28:23;;;;;;;54.47;39.47;;;;;;;;;;343456;28;1287;-81
2022/03/10 00:28:34;;;;;;;52.60;39.43;;;;;;;;;;343600;28;1118;-82
2022/03/10 00:28:44;;;;;;;54.50;39.88;;;;;;;;;;342939;28;1363;-84
2022/03/10 00:28:55;;;;;;;54.97;39.87;;;;;;;;;;343578;28;1425;-81
2022/03/10 00:29:05;;;;;;;56.63;40.93;;;;;;;;;;343818;28;1150;-83
2022/03/10 00:29:15;;;;;;;55.70;41.63;;;;;;;;;;342594;28;1476;-81
2022/03/10 00:29:26;;;;;;;55.03;41.63;;;;;;;;;;341266;28;1272;-81
2022/03/10 00:29:36;;;;;;;55.67;41.22;;;;;;;;;;342100;28;1412;-82
2022/03/10 00:29:46;;;;;;;55.03;40.63;;;;;;;;;;342315;28;1197;-82
2022/03/10 00:29:57;;;;;;;54.77;40.47;;;;;;;;;;342406;28;1372;-84
2022/03/10 00:30:07;;;;;;;54.85;40.10;;;;;;;;;;342758;28;820;-82
2022/03/10 00:30:18;;;;;;;56.17;39.70;;;;;;;;;;341212;29;1363;-81
2022/03/10 00:30:29;;;;;;;56.42;40.00;;;;;;;;;;340071;29;1303;-82
2022/03/10 00:30:39;;;;;;;55.73;40.37;;;;;;;;;;341002;29;1242;-81
2022/03/10 00:30:49;;;;;;;55.47;40.40;;;;;;;;;;341360;29;867;-81
2022/03/10 00:31:00;;;;;;;56.17;40.88;;;;;;;;;;342632;28;1327;-84
2022/03/10 00:31:10;;;;;;;56.87;40.13;;;;;;;;;;342769;28;812;-84
2022/03/10 00:31:21;;;;;;;57.13;40.70;;;;;;;;;;343238;28;950;-84
2022/03/10 00:31:31;;;;;;;54.75;39.50;;;;;;;;;;341898;28;1178;-81
2022/03/10 00:31:42;;;;;;;54.28;39.63;;;;;;;;;;342913;28;1209;-82
2022/03/10 00:31:52;;;;;;;54.67;39.33;;;;;;;;;;342532;28;1248;-82
2022/03/10 00:32:03;;;;;;;56.30;40.80;;;;;;;;;;343671;28;1408;-81
2022/03/10 00:32:13;;;;;;;55.03;40.83;;;;;;;;;;342068;28;1159;-81
2022/03/10 00:32:23;;;;;;;52.87;40.60;;;;;;;;;;341072;29;1197;-82
2022/03/10 00:32:40;;;;;;;55.08;40.70;;;;;;;;;;341104;29;1268;-81
2022/03/10 00:32:51;;;;;;;58.13;41.17;;;;;;;;;;341330;29;884;-81
2022/03/10 00:33:02;;;;;;;57.50;41.22;;;;;;;;;;342683;28;1328;-84
2022/03/10 00:33:12;;;;;;;56.35;41.53;;;;;;;;;;342782;28;827;-81
2022/03/10 00:33:23;;;;;;;57.37;41.30;;;;;;;;;;342680;28;856;-84
2022/03/10 00:33:33;;;;;;;54.73;40.37;;;;;;;;;;342446;28;1200;-81
2022/03/10 00:33:44;;;;;;;55.60;40.25;;;;;;;;;;342609;28;1444;-82
2022/03/10 00:33:54;;;;;;;55.38;40.40;;;;;;;;;;342337;28;1280;-82
2022/03/10 00:34:04;;;;;;;55.63;40.93;;;;;;;;;;342684;28;1149;-83
2022/03/10 00:34:15;;;;;;;54.20;39.97;;;;;;;;;;342653;28;1253;-81
2022/03/10 00:34:25;;;;;;;54.00;40.05;;;;;;;;;;342460;28;1217;-81
2022/03/10 00:34:36;;;;;;;53.77;40.03;;;;;;;;;;342214;28;1276;-82
2022/03/10 00:34:46;;;;;;;54.83;40.15;;;;;;;;;;343687;28;1225;-81
2022/03/10 00:34:56;;;;;;;53.60;40.13;;;;;;;;;;343951;28;1311;-83
2022/03/10 00:35:07;;;;;;;53.03;39.50;;;;;;;;;;344019;28;1157;-82
2022/03/10 00:35:18;;;;;;;53.05;39.92;;;;;;;;;;344021;28;958;-82
2022/03/10 00:35:29;;;;;;;55.13;39.47;;;;;;;;;;343736;28;1193;-82
2022/03/10 00:35:39;;;;;;;56.28;40.20;;;;;;;;;;345025;28;1228;-82
2022/03/10 00:35:49;;;;;;;54.03;39.73;;;;;;;;;;345331;28;839;-82
2022/03/10 00:36:00;;;;;;;52.55;40.25;;;;;;;;;;344044;28;1212;-83
2022/03/10 00:36:10;;;;;;;51.27;39.23;;;;;;;;;;344052;28;1292;-81
2022/03/10 00:36:20;;;;;;;53.13;39.27;;;;;;;;;;343602;28;1160;-81
2022/03/10 00:36:31;;;;;;;54.40;39.65;;;;;;;;;;344089;28;890;-81
2022/03/10 00:36:41;;;;;;;55.33;40.23;;;;;;;;;;343654;28;1320;-81
2022/03/10 00:36:51;;;;;;;53.53;39.28;;;;;;;;;;343812;28;1445;-81
2022/03/10 00:37:02;;;;;;;53.57;39.37;;;;;;;;;;344145;28;1010;-82
2022/03/10 00:37:12;;;;;;;54.65;40.20;;;;;;;;;;342714;28;1260;-83
2022/03/10 00:37:22;;;;;;;55.27;40.87;;;;;;;;;;342395;28;1335;-82
2022/03/10 00:37:33;;;;;;;55.73;40.67;;;;;;;;;;342521;28;890;-82
2022/03/10 00:37:44;;;;;;;54.28;39.63;;;;;;;;;;342726;28;859;-82
2022/03/10 00:37:54;;;;;;;53.20;39.73;;;;;;;;;;342677;28;883;-82
2022/03/10 00:38:05;;;;;;;55.00;40.47;;;;;;;;;;341850;28;1335;-85
2022/03/10 00:38:15;;;;;;;53.92;39.95;;;;;;;;;;343023;28;1405;-85
2022/03/10 00:38:25;;;;;;;54.43;39.97;;;;;;;;;;342414;28;1296;-82
2022/03/10 00:38:36;;;;;;;52.73;39.03;;;;;;;;;;340940;29;1150;-82
2022/03/10 00:38:46;;;;;;;52.45;40.00;;;;;;;;;;341037;29;1131;-81
2022/03/10 00:38:56;;;;;;;52.33;39.40;;;;;;;;;;341338;29;852;-81
2022/03/10 00:39:07;;;;;;;52.45;39.47;;;;;;;;;;341215;28;1436;-81
2022/03/10 00:39:17;;;;;;;53.93;39.03;;;;;;;;;;341327;29;1217;-81
2022/03/10 00:39:27;;;;;;;53.63;39.17;;;;;;;;;;341392;29;891;-82
2022/03/10 00:39:38;;;;;;;54.30;39.55;;;;;;;;;;341068;29;899;-82
2022/03/10 00:39:48;;;;;;;55.60;40.07;;;;;;;;;;341035;29;1182;-82
2022/03/10 00:39:58;;;;;;;57.00;40.73;;;;;;;;;;341663;28;1232;-82
2022/03/10 00:40:09;;;;;;;57.40;40.05;;;;;;;;;;342459;28;1189;-82
2022/03/10 00:40:20;;;;;;;55.73;40.03;;;;;;;;;;343523;28;1326;-83
2022/03/10 00:40:30;;;;;;;55.15;40.00;;;;;;;;;;342668;28;1212;-82
2022/03/10 00:40:40;;;;;;;56.72;40.83;;;;;;;;;;343728;28;1357;-81
2022/03/10 00:40:51;;;;;;;55.80;40.10;;;;;;;;;;342549;28;1257;-81
2022/03/10 00:41:01;;;;;;;56.75;40.47;;;;;;;;;;342436;28;1140;-82
2022/03/10 00:41:12;;;;;;;55.23;40.00;;;;;;;;;;342800;28;899;-82
2022/03/10 00:41:22;;;;;;;55.60;39.80;;;;;;;;;;342371;28;1428;-83
2022/03/10 00:41:32;;;;;;;52.40;38.42;;;;;;;;;;342461;28;1442;-83
2022/03/10 00:41:43;;;;;;;53.03;38.83;;;;;;;;;;342263;28;931;-82
2022/03/10 00:41:53;;;;;;;53.00;40.15;;;;;;;;;;341315;29;1349;-82
2022/03/10 00:42:04;;;;;;;55.63;40.13;;;;;;;;;;341067;29;1910;-81
2022/03/10 00:42:15;;;;;;;54.65;39.65;;;;;;;;;;341376;29;1474;-84
2022/03/10 00:42:25;;;;;;;54.88;39.22;;;;;;;;;;343636;28;1379;-81
2022/03/10 00:42:36;;;;;;;53.13;39.20;;;;;;;;;;343840;28;831;-81
2022/03/10 00:42:47;;;;;;;52.85;39.38;;;;;;;;;;343907;28;1435;-82
2022/03/10 00:42:57;;;;;;;53.80;39.03;;;;;;;;;;344129;28;891;-82
2022/03/10 00:43:13;;;;;;;55.67;39.80;;;;;;;;;;344143;28;867;-81
2022/03/10 00:43:24;;;;;;;54.90;39.58;;;;;;;;;;345396;28;1030;-81
2022/03/10 00:43:34;;;;;;;53.47;39.20;;;;;;;;;;343921;28;1157;-82
2022/03/10 00:43:45;;;;;;;53.40;39.40;;;;;;;;;;344001;28;871;-81
2022/03/10 00:43:55;;;;;;;54.87;39.47;;;;;;;;;;342617;28;1161;-84
2022/03/10 00:44:05;;;;;;;56.90;40.25;;;;;;;;;;342770;28;831;-81
2022/03/10 00:44:17;;;;;;;55.50;39.23;;;;;;;;;;343780;28;1126;-82
2022/03/10 00:44:29;;;;;;;56.22;40.05;;;;;;;;;;343923;28;1279;-82
2022/03/10 00:44:40;;;;;;;55.53;39.67;;;;;;;;;;343695;28;1382;-82
2022/03/10 00:44:50;;;;;;;56.50;40.17;;;;;;;;;;343889;28;1200;-81
2022/03/10 00:45:00;;;;;;;54.53;39.63;;;;;;;;;;343996;28;1251;-83
2022/03/10 00:45:11;;;;;;;54.93;39.53;;;;;;;;;;343848;28;1208;-81
2022/03/10 00:45:22;;;;;;;55.67;38.85;;;;;;;;;;342608;28;1283;-81
2022/03/10 00:45:32;;;;;;;56.87;39.50;;;;;;;;;;343660;28;1213;-82
2022/03/10 00:45:42;;;;;;;57.10;39.83;;;;;;;;;;343829;28;855;-84
2022/03/10 00:45:53;;;;;;;52.93;39.77;;;;;;;;;;342622;28;1149;-81
2022/03/10 00:46:03;;;;;;;52.25;38.47;;;;;;;;;;343790;28;1489;-81
2022/03/10 00:46:14;;;;;;;52.23;38.20;;;;;;;;;;343742;28;1240;-82
2022/03/10 00:46:24;;;;;;;55.92;38.15;;;;;;;;;;343888;28;831;-81
2022/03/10 00:46:35;;;;;;;56.33;39.33;;;;;;;;;;342457;28;1142;-82
2022/03/10 00:46:45;;;;;;;55.78;39.60;;;;;;;;;;341947;28;939;-81
2022/03/10 00:46:55;;;;;;;52.57;38.90;;;;;;;;;;340496;29;1193;-82
2022/03/10 00:47:06;;;;;;;52.83;38.33;;;;;;;;;;341222;29;1170;-85
2022/03/10 00:47:16;;;;;;;54.47;38.30;;;;;;;;;;342342;28;1258;-85
2022/03/10 00:47:27;;;;;;;56.53;38.47;;;;;;;;;;342699;28;1292;-85
2022/03/10 00:47:37;;;;;;;55.87;38.63;;;;;;;;;;343619;28;1296;-84
2022/03/10 00:47:47;;;;;;;54.37;38.87;;;;;;;;;;343600;28;1229;-81
2022/03/10 00:47:58;;;;;;;54.40;39.70;;;;;;;;;;344041;28;1339;-81
2022/03/10 00:48:09;;;;;;;54.23;39.07;;;;;;;;;;344059;28;1311;-85
2022/03/10 00:48:19;;;;;;;55.30;40.05;;;;;;;;;;344074;28;843;-81
2022/03/10 00:48:29;;;;;;;55.55;39.97;;;;;;;;;;344112;28;946;-81
2022/03/10 00:48:40;;;;;;;54.87;39.60;;;;;;;;;;343821;28;800;-81
2022/03/10 00:48:50;;;;;;;54.60;39.37;;;;;;;;;;344040;28;863;-82
2022/03/10 00:49:01;;;;;;;53.77;39.07;;;;;;;;;;343980;28;1347;-83
2022/03/10 00:49:11;;;;;;;54.30;39.77;;;;;;;;;;341232;29;1195;-81
2022/03/10 00:49:21;;;;;;;55.22;39.38;;;;;;;;;;341395;29;875;-81
2022/03/10 00:49:32;;;;;;;54.90;39.97;;;;;;;;;;341429;29;871;-82
2022/03/10 00:49:42;;;;;;;53.47;39.60;;;;;;;;;;341483;28;1335;-82
2022/03/10 00:49:52;;;;;;;52.55;39.33;;;;;;;;;;342601;28;1342;-81
2022/03/10 00:50:03;;;;;;;51.77;38.23;;;;;;;;;;341070;29;1281;-85
2022/03/10 00:50:13;;;;;;;55.42;39.30;;;;;;;;;;342348;28;1321;-81
2022/03/10 00:50:24;;;;;;;57.77;40.70;;;;;;;;;;342626;28;1304;-81
2022/03/10 00:50:34;;;;;;;58.78;41.45;;;;;;;;;;342468;28;1448;-81
2022/03/10 00:50:45;;;;;;;55.27;39.97;;;;;;;;;;343250;28;1150;-81
2022/03/10 00:50:55;;;;;;;56.10;40.08;;;;;;;;;;342424;28;1318;-81
2022/03/10 00:51:06;;;;;;;57.47;40.03;;;;;;;;;;342785;28;856;-81
2022/03/10 00:51:16;;;;;;;56.28;40.15;;;;;;;;;;342776;28;900;-81
2022/03/10 00:51:26;;;;;;;54.67;39.73;;;;;;;;;;341151;29;1371;-82
2022/03/10 00:51:37;;;;;;;55.15;39.55;;;;;;;;;;341312;29;915;-82
2022/03/10 00:51:50;;;;;;;55.58;39.88;;;;;;;;;;341117;29;892;-81
2022/03/10 00:52:01;;;;;;;54.53;39.00;;;;;;;;;;341460;29;864;-81
2022/03/10 00:52:11;;;;;;;53.40;38.87;;;;;;;;;;342675;28;901;-81
2022/03/10 00:52:21;;;;;;;53.03;38.43;;;;;;;;;;343795;28;1253;-81
2022/03/10 00:52:32;;;;;;;52.80;38.60;;;;;;;;;;344119;28;835;-81
2022/03/10 00:52:46;;;;;;;53.50;38.67;;;;;;;;;;342697;28;1275;-81
2022/03/10 00:52:56;;;;;;;54.00;39.17;;;;;;;;;;343801;28;1348;-82
2022/03/10 00:53:07;;;;;;;53.43;39.63;;;;;;;;;;344102;28;914;-85
2022/03/10 00:53:17;;;;;;;53.87;40.23;;;;;;;;;;343958;28;1183;-83
2022/03/10 00:53:27;;;;;;;52.22;40.00;;;;;;;;;;343793;28;1228;-81
2022/03/10 00:53:38;;;;;;;50.93;39.87;;;;;;;;;;343720;28;1321;-85
2022/03/10 00:53:48;;;;;;;51.13;38.97;;;;;;;;;;344783;28;800;-83
2022/03/10 00:53:58;;;;;;;53.58;38.92;;;;;;;;;;345337;28;831;-84
2022/03/10 00:54:09;;;;;;;54.47;38.83;;;;;;;;;;343825;28;1157;-85
2022/03/10 00:54:19;;;;;;;56.80;40.07;;;;;;;;;;343837;28;1287;-81
2022/03/10 00:54:29;;;;;;;56.30;40.63;;;;;;;;;;343729;28;1307;-82
2022/03/10 00:54:40;;;;;;;56.80;40.47;;;;;;;;;;343740;28;800;-82
2022/03/10 00:54:50;;;;;;;56.22;39.78;;;;;;;;;;343774;28;1240;-81
2022/03/10 00:55:00;;;;;;;57.97;39.40;;;;;;;;;;343902;28;1177;-81
2022/03/10 00:55:11;;;;;;;56.90;39.47;;;;;;;;;;344113;28;784;-84
2022/03/10 00:55:21;;;;;;;55.25;39.63;;;;;;;;;;344054;28;894;-82
2022/03/10 00:55:32;;;;;;;54.22;39.90;;;;;;;;;;344091;28;594;-81
2022/03/10 00:55:42;;;;;;;54.20;39.80;;;;;;;;;;343747;28;804;-81
2022/03/10 00:55:52;;;;;;;54.92;40.05;;;;;;;;;;342597;28;1224;-82
2022/03/10 00:56:03;;;;;;;53.27;38.93;;;;;;;;;;342625;28;1274;-81
2022/03/10 00:56:13;;;;;;;54.47;38.57;;;;;;;;;;343341;28;792;-81
2022/03/10 00:56:24;;;;;;;53.47;38.93;;;;;;;;;;345294;28;1295;-81
2022/03/10 00:56:34;;;;;;;53.83;39.63;;;;;;;;;;343955;28;1375;-81
2022/03/10 00:56:44;;;;;;;53.67;39.05;;;;;;;;;;343319;28;948;-82
2022/03/10 00:56:55;;;;;;;55.20;39.07;;;;;;;;;;341726;28;1300;-81
2022/03/10 00:57:05;;;;;;;58.43;39.43;;;;;;;;;;342443;28;1280;-81
2022/03/10 00:57:15;;;;;;;59.42;39.90;;;;;;;;;;342785;28;926;-84
2022/03/10 00:57:26;;;;;;;60.07;39.53;;;;;;;;;;342746;28;808;-84
2022/03/10 00:57:36;;;;;;;57.65;39.95;;;;;;;;;;343554;28;1317;-82
2022/03/10 00:57:48;;;;;;;57.17;40.40;;;;;;;;;;342266;28;1157;-82
2022/03/10 00:57:58;;;;;;;54.80;39.78;;;;;;;;;;342440;28;1355;-82
2022/03/10 00:58:08;;;;;;;54.95;39.28;;;;;;;;;;342814;28;827;-81
2022/03/10 00:58:18;;;;;;;56.77;39.00;;;;;;;;;;343180;28;819;-81
2022/03/10 00:58:29;;;;;;;55.53;39.10;;;;;;;;;;342944;28;1272;-81
2022/03/10 00:58:39;;;;;;;54.08;38.38;;;;;;;;;;343784;28;1411;-82
2022/03/10 00:58:49;;;;;;;51.13;37.07;;;;;;;;;;343628;28;1318;-82
2022/03/10 00:59:00;;;;;;;51.03;37.10;;;;;;;;;;343786;28;1194;-81
2022/03/10 00:59:10;;;;;;;52.83;38.33;;;;;;;;;;344055;28;1292;-83
2022/03/10 00:59:20;;;;;;;53.03;38.97;;;;;;;;;;342655;28;1170;-83
2022/03/10 00:59:31;;;;;;;55.28;39.45;;;;;;;;;;342420;28;1312;-81
2022/03/10 00:59:41;;;;;;;54.90;39.17;;;;;;;;;;343590;28;1325;-82
2022/03/10 00:59:52;;;;;;;54.70;39.65;;;;;;;;;;343693;28;1172;-82
2022/03/10 01:00:03;;;;;;;54.17;39.93;;;;;;;;;;344999;28;1438;-81
2022/03/10 01:00:14;;;;;;;54.33;39.75;;;;;;;;;;345511;28;902;-84
2022/03/10 01:00:28;;;;;;;54.80;39.50;;;;;;;;;;345062;28;1480;-84
2022/03/10 01:00:38;;;;;;;56.92;39.63;;;;;;;;;;345357;28;847;-82
2022/03/10 01:00:48;;;;;;;56.83;39.75;;;;;;;;;;344769;28;1303;-84
2022/03/10 01:00:59;;;;;;;57.23;39.87;;;;;;;;;;345284;28;1222;-82
2022/03/10 01:01:10;;;;;;;56.07;39.43;;;;;;;;;;345286;28;1393;-82
2022/03/10 01:01:20;;;;;;;58.13;40.17;;;;;;;;;;345232;28;1354;-82
2022/03/10 01:01:31;;;;;;;57.57;39.97;;;;;;;;;;345672;28;944;-82
2022/03/10 01:01:41;;;;;;;56.20;39.90;;;;;;;;;;345416;28;1210;-84
2022/03/10 01:01:51;;;;;;;54.23;39.33;;;;;;;;;;343859;28;1256;-81
2022/03/10 01:02:02;;;;;;;53.37;38.87;;;;;;;;;;344444;28;792;-84
2022/03/10 01:02:12;;;;;;;54.40;38.38;;;;;;;;;;344387;28;835;-82
2022/03/10 01:02:22;;;;;;;54.23;38.27;;;;;;;;;;342674;28;1157;-82
2022/03/10 01:02:34;;;;;;;53.43;38.37;;;;;;;;;;343013;28;922;-82
2022/03/10 01:02:44;;;;;;;54.33;39.35;;;;;;;;;;342620;28;1493;-81
2022/03/10 01:02:55;;;;;;;54.03;39.63;;;;;;;;;;342914;28;801;-82
2022/03/10 01:03:06;;;;;;;51.85;39.28;;;;;;;;;;343791;28;899;-84
2022/03/10 01:03:16;;;;;;;51.20;38.60;;;;;;;;;;345001;28;887;-81
2022/03/10 01:03:26;;;;;;;52.80;38.13;;;;;;;;;;343946;28;1217;-81
2022/03/10 01:03:37;;;;;;;54.78;38.45;;;;;;;;;;343971;28;1320;-82
2022/03/10 01:03:47;;;;;;;54.63;38.53;;;;;;;;;;343981;28;1275;-82
2022/03/10 01:03:58;;;;;;;54.00;38.63;;;;;;;;;;344171;28;1165;-82